createdAt,value
2022-11-02T00:00:46.897Z,1014.53
2022-11-02T00:01:46.871Z,1014.56
2022-11-02T00:02:46.970Z,1014.55
2022-11-02T00:03:46.855Z,1014.57
2022-11-02T00:04:46.847Z,1014.55
2022-11-02T00:05:46.840Z,1014.59
2022-11-02T00:06:46.834Z,1014.52
2022-11-02T00:07:46.826Z,1014.49
2022-11-02T00:08:46.814Z,1014.52
2022-11-02T00:09:46.809Z,1014.53
2022-11-02T00:10:46.798Z,1014.52
2022-11-02T00:11:46.794Z,1014.50
2022-11-02T00:12:46.784Z,1014.49
2022-11-02T00:13:46.774Z,1014.49
2022-11-02T00:14:46.767Z,1014.51
2022-11-02T00:15:46.758Z,1014.49
2022-11-02T00:16:46.751Z,1014.49
2022-11-02T00:17:46.738Z,1014.53
2022-11-02T00:18:46.736Z,1014.50
2022-11-02T00:19:46.725Z,1014.54
2022-11-02T00:20:46.716Z,1014.54
2022-11-02T00:21:46.710Z,1014.58
2022-11-02T00:22:46.702Z,1014.54
2022-11-02T00:23:46.694Z,1014.60
2022-11-02T00:24:46.690Z,1014.60
2022-11-02T00:25:46.676Z,1014.62
2022-11-02T00:26:46.667Z,1014.63
2022-11-02T00:27:46.657Z,1014.60
2022-11-02T00:28:46.647Z,1014.61
2022-11-02T00:29:46.643Z,1014.59
2022-11-02T00:30:46.641Z,1014.60
2022-11-02T00:31:46.625Z,1014.58
2022-11-02T00:32:46.618Z,1014.59
2022-11-02T00:33:46.608Z,1014.53
2022-11-02T00:34:46.603Z,1014.59
2022-11-02T00:35:46.589Z,1014.58
2022-11-02T00:36:47.466Z,1014.56
2022-11-02T00:37:46.578Z,1014.55
2022-11-02T00:38:46.573Z,1014.58
2022-11-02T00:39:46.559Z,1014.58
2022-11-02T00:40:46.550Z,1014.58
2022-11-02T00:41:46.543Z,1014.57
2022-11-02T00:42:46.533Z,1014.54
2022-11-02T00:43:46.528Z,1014.54
2022-11-02T00:44:46.521Z,1014.55
2022-11-02T00:45:46.503Z,1014.52
2022-11-02T00:46:46.503Z,1014.53
2022-11-02T00:47:46.494Z,1014.54
2022-11-02T00:48:46.481Z,1014.57
2022-11-02T00:49:46.473Z,1014.56
2022-11-02T00:50:46.464Z,1014.56
2022-11-02T00:51:46.464Z,1014.54
2022-11-02T00:52:46.450Z,1014.56
2022-11-02T00:53:46.444Z,1014.56
2022-11-02T00:54:46.435Z,1014.56
2022-11-02T00:55:46.427Z,1014.61
2022-11-02T00:56:46.414Z,1014.61
2022-11-02T00:57:46.408Z,1014.55
2022-11-02T00:58:46.398Z,1014.57
2022-11-02T00:59:46.390Z,1014.60
2022-11-02T01:00:46.381Z,1014.58
2022-11-02T01:01:46.466Z,1014.57
2022-11-02T01:02:46.516Z,1014.55
2022-11-02T01:03:46.352Z,1014.55
2022-11-02T01:04:46.347Z,1014.53
2022-11-02T01:05:46.337Z,1014.48
2022-11-02T01:06:46.332Z,1014.45
2022-11-02T01:07:46.321Z,1014.45
2022-11-02T01:08:46.312Z,1014.45
2022-11-02T01:09:46.304Z,1014.43
2022-11-02T01:10:48.274Z,1014.48
2022-11-02T01:11:46.301Z,1014.50
2022-11-02T01:12:46.281Z,1014.49
2022-11-02T01:13:46.271Z,1014.53
2022-11-02T01:14:46.260Z,1014.55
2022-11-02T01:15:46.254Z,1014.52
2022-11-02T01:17:46.240Z,1014.54
2022-11-02T01:18:46.248Z,1014.54
2022-11-02T01:19:46.220Z,1014.53
2022-11-02T01:20:46.211Z,1014.56
2022-11-02T01:21:46.206Z,1014.55
2022-11-02T01:22:46.194Z,1014.57
2022-11-02T01:23:46.189Z,1014.56
2022-11-02T01:24:46.202Z,1014.56
2022-11-02T01:25:46.167Z,1014.57
2022-11-02T01:26:46.158Z,1014.53
2022-11-02T01:27:46.150Z,1014.52
2022-11-02T01:28:46.169Z,1014.54
2022-11-02T01:29:46.132Z,1014.56
2022-11-02T01:30:46.124Z,1014.56
2022-11-02T01:31:46.115Z,1014.57
2022-11-02T01:32:46.106Z,1014.58
2022-11-02T01:33:46.097Z,1014.59
2022-11-02T01:34:46.090Z,1014.60
2022-11-02T01:35:46.085Z,1014.59
2022-11-02T01:36:46.077Z,1014.56
2022-11-02T01:37:46.063Z,1014.52
2022-11-02T01:38:46.056Z,1014.50
2022-11-02T01:39:46.047Z,1014.49
2022-11-02T01:40:46.038Z,1014.44
2022-11-02T01:41:46.029Z,1014.42
2022-11-02T01:42:46.018Z,1014.39
2022-11-02T01:43:46.015Z,1014.36
2022-11-02T01:44:46.001Z,1014.30
2022-11-02T01:45:45.995Z,1014.28
2022-11-02T01:46:45.987Z,1014.26
2022-11-02T01:47:45.980Z,1014.26
2022-11-02T01:48:45.967Z,1014.28
2022-11-02T01:49:45.959Z,1014.27
2022-11-02T01:50:45.952Z,1014.27
2022-11-02T01:51:45.944Z,1014.29
2022-11-02T01:52:45.934Z,1014.30
2022-11-02T01:53:45.929Z,1014.33
2022-11-02T01:54:45.917Z,1014.35
2022-11-02T01:55:45.908Z,1014.29
2022-11-02T01:56:45.907Z,1014.29
2022-11-02T01:57:45.891Z,1014.23
2022-11-02T01:58:45.880Z,1014.26
2022-11-02T01:59:45.876Z,1014.26
2022-11-02T02:00:45.862Z,1014.31
2022-11-02T02:01:45.952Z,1014.34
2022-11-02T02:02:45.880Z,1014.34
2022-11-02T02:03:45.838Z,1014.29
2022-11-02T02:04:45.828Z,1014.30
2022-11-02T02:05:45.820Z,1014.27
2022-11-02T02:06:45.811Z,1014.29
2022-11-02T02:07:45.804Z,1014.27
2022-11-02T02:08:45.794Z,1014.27
2022-11-02T02:09:48.754Z,1014.26
2022-11-02T02:10:45.776Z,1014.26
2022-11-02T02:11:45.768Z,1014.25
2022-11-02T02:12:45.759Z,1014.23
2022-11-02T02:13:45.748Z,1014.22
2022-11-02T02:14:45.740Z,1014.23
2022-11-02T02:15:45.729Z,1014.23
2022-11-02T02:16:45.766Z,1014.20
2022-11-02T02:17:45.713Z,1014.16
2022-11-02T02:18:45.704Z,1014.18
2022-11-02T02:19:45.698Z,1014.20
2022-11-02T02:20:45.691Z,1014.20
2022-11-02T02:21:45.684Z,1014.22
2022-11-02T02:22:45.672Z,1014.20
2022-11-02T02:23:45.660Z,1014.17
2022-11-02T02:24:45.654Z,1014.16
2022-11-02T02:25:45.644Z,1014.18
2022-11-02T02:26:45.632Z,1014.19
2022-11-02T02:27:45.628Z,1014.16
2022-11-02T02:28:45.615Z,1014.21
2022-11-02T02:29:45.608Z,1014.20
2022-11-02T02:30:45.600Z,1014.20
2022-11-02T02:31:45.592Z,1014.22
2022-11-02T02:32:45.581Z,1014.22
2022-11-02T02:33:45.573Z,1014.22
2022-11-02T02:34:45.570Z,1014.19
2022-11-02T02:35:45.552Z,1014.15
2022-11-02T02:37:45.536Z,1014.18
2022-11-02T02:38:45.528Z,1014.22
2022-11-02T02:39:45.520Z,1014.21
2022-11-02T02:40:45.509Z,1014.23
2022-11-02T02:41:45.501Z,1014.17
2022-11-02T02:42:45.494Z,1014.18
2022-11-02T02:43:45.483Z,1014.18
2022-11-02T02:44:45.475Z,1014.17
2022-11-02T02:45:45.469Z,1014.16
2022-11-02T02:46:46.538Z,1014.15
2022-11-02T02:47:45.448Z,1014.15
2022-11-02T02:48:45.441Z,1014.15
2022-11-02T02:49:45.428Z,1014.12
2022-11-02T02:50:45.424Z,1014.12
2022-11-02T02:51:45.411Z,1014.13
2022-11-02T02:52:45.403Z,1014.10
2022-11-02T02:53:45.395Z,1014.06
2022-11-02T02:54:45.387Z,1014.09
2022-11-02T02:55:45.377Z,1014.07
2022-11-02T02:57:45.359Z,1014.08
2022-11-02T02:58:45.350Z,1014.09
2022-11-02T02:59:45.348Z,1014.07
2022-11-02T03:00:45.331Z,1014.09
2022-11-02T03:01:45.451Z,1014.12
2022-11-02T03:02:45.329Z,1014.11
2022-11-02T03:03:45.303Z,1014.09
2022-11-02T03:04:45.305Z,1014.08
2022-11-02T03:05:45.287Z,1014.06
2022-11-02T03:06:45.281Z,1014.08
2022-11-02T03:07:45.270Z,1014.06
2022-11-02T03:08:45.262Z,1014.03
2022-11-02T03:09:45.252Z,1014.00
2022-11-02T03:10:45.244Z,1013.98
2022-11-02T03:11:45.235Z,1014.01
2022-11-02T03:12:45.225Z,1014.04
2022-11-02T03:13:45.217Z,1014.01
2022-11-02T03:14:45.210Z,1014.00
2022-11-02T03:15:45.197Z,1013.99
2022-11-02T03:16:45.261Z,1013.96
2022-11-02T03:17:45.181Z,1013.99
2022-11-02T03:18:45.173Z,1014.00
2022-11-02T03:19:45.163Z,1014.03
2022-11-02T03:20:45.156Z,1014.05
2022-11-02T03:21:45.150Z,1014.06
2022-11-02T03:22:45.136Z,1014.13
2022-11-02T03:23:45.127Z,1014.07
2022-11-02T03:24:45.119Z,1014.09
2022-11-02T03:25:45.109Z,1014.08
2022-11-02T03:26:45.100Z,1014.07
2022-11-02T03:27:45.093Z,1014.07
2022-11-02T03:28:45.083Z,1014.07
2022-11-02T03:29:45.073Z,1014.10
2022-11-02T03:30:45.064Z,1014.09
2022-11-02T03:31:45.062Z,1014.08
2022-11-02T03:32:45.048Z,1014.05
2022-11-02T03:33:45.036Z,1014.02
2022-11-02T03:34:45.029Z,1013.98
2022-11-02T03:35:45.022Z,1014.04
2022-11-02T03:36:45.011Z,1014.02
2022-11-02T03:37:45.002Z,1014.03
2022-11-02T03:38:44.994Z,1014.03
2022-11-02T03:39:44.987Z,1014.02
2022-11-02T03:40:44.975Z,1014.07
2022-11-02T03:41:44.969Z,1014.09
2022-11-02T03:42:44.960Z,1014.06
2022-11-02T03:43:44.949Z,1014.12
2022-11-02T03:44:44.940Z,1014.08
2022-11-02T03:45:44.929Z,1014.06
2022-11-02T03:46:44.921Z,1014.08
2022-11-02T03:47:44.913Z,1014.08
2022-11-02T03:48:44.903Z,1014.08
2022-11-02T03:49:44.895Z,1014.04
2022-11-02T03:50:44.890Z,1014.05
2022-11-02T03:51:44.877Z,1014.05
2022-11-02T03:52:44.868Z,1014.02
2022-11-02T03:53:44.859Z,1014.05
2022-11-02T03:54:44.851Z,1014.10
2022-11-02T03:55:44.841Z,1014.09
2022-11-02T03:56:44.834Z,1014.09
2022-11-02T03:57:44.823Z,1014.13
2022-11-02T03:58:44.816Z,1014.11
2022-11-02T03:59:44.806Z,1014.10
2022-11-02T04:00:44.802Z,1014.11
2022-11-02T04:01:44.878Z,1014.08
2022-11-02T04:02:44.853Z,1014.07
2022-11-02T04:03:44.773Z,1014.10
2022-11-02T04:04:44.760Z,1014.11
2022-11-02T04:05:44.754Z,1014.09
2022-11-02T04:06:44.741Z,1014.04
2022-11-02T04:07:47.257Z,1014.03
2022-11-02T04:08:44.721Z,1014.06
2022-11-02T04:09:44.716Z,1014.02
2022-11-02T04:10:44.707Z,1013.99
2022-11-02T04:11:44.698Z,1013.98
2022-11-02T04:12:44.686Z,1014.00
2022-11-02T04:13:44.681Z,1013.96
2022-11-02T04:14:44.674Z,1013.97
2022-11-02T04:15:44.663Z,1013.96
2022-11-02T04:16:44.648Z,1013.99
2022-11-02T04:17:44.643Z,1013.94
2022-11-02T04:18:44.636Z,1013.95
2022-11-02T04:19:48.635Z,1013.96
2022-11-02T04:20:44.615Z,1014.00
2022-11-02T04:21:44.609Z,1013.99
2022-11-02T04:22:44.606Z,1013.98
2022-11-02T04:23:44.590Z,1014.01
2022-11-02T04:24:44.583Z,1014.03
2022-11-02T04:25:44.573Z,1014.03
2022-11-02T04:26:44.563Z,1014.04
2022-11-02T04:27:44.555Z,1014.00
2022-11-02T04:28:44.544Z,1014.02
2022-11-02T04:29:44.536Z,1014.02
2022-11-02T04:30:44.529Z,1014.05
2022-11-02T04:31:44.524Z,1014.03
2022-11-02T04:32:44.509Z,1013.99
2022-11-02T04:33:44.500Z,1014.05
2022-11-02T04:34:44.491Z,1014.02
2022-11-02T04:35:44.484Z,1014.02
2022-11-02T04:36:44.479Z,1014.04
2022-11-02T04:37:44.469Z,1014.08
2022-11-02T04:38:44.454Z,1014.07
2022-11-02T04:39:44.446Z,1014.09
2022-11-02T04:40:44.436Z,1014.12
2022-11-02T04:41:44.442Z,1014.13
2022-11-02T04:42:44.420Z,1014.09
2022-11-02T04:43:44.411Z,1014.08
2022-11-02T04:44:44.403Z,1014.07
2022-11-02T04:45:44.393Z,1014.08
2022-11-02T04:46:44.382Z,1014.11
2022-11-02T04:47:44.375Z,1014.12
2022-11-02T04:48:44.365Z,1014.13
2022-11-02T04:49:44.357Z,1014.09
2022-11-02T04:50:44.347Z,1014.08
2022-11-02T04:51:47.205Z,1014.06
2022-11-02T04:52:44.327Z,1014.06
2022-11-02T04:53:44.320Z,1014.02
2022-11-02T04:54:44.310Z,1014.02
2022-11-02T04:55:44.301Z,1014.02
2022-11-02T04:56:44.293Z,1014.04
2022-11-02T04:57:44.300Z,1014.08
2022-11-02T04:58:44.273Z,1014.05
2022-11-02T04:59:44.265Z,1014.05
2022-11-02T05:00:44.269Z,1014.10
2022-11-02T05:01:44.356Z,1014.10
2022-11-02T05:02:44.403Z,1014.08
2022-11-02T05:03:44.233Z,1014.08
2022-11-02T05:04:44.251Z,1014.06
2022-11-02T05:05:44.210Z,1014.04
2022-11-02T05:06:44.226Z,1014.03
2022-11-02T05:07:44.204Z,1014.04
2022-11-02T05:08:44.183Z,1014.03
2022-11-02T05:09:44.175Z,1014.05
2022-11-02T05:10:44.164Z,1014.02
2022-11-02T05:11:44.155Z,1014.00
2022-11-02T05:12:44.148Z,1014.01
2022-11-02T05:13:44.140Z,1014.00
2022-11-02T05:14:44.130Z,1014.00
2022-11-02T05:15:44.155Z,1014.03
2022-11-02T05:16:44.110Z,1013.98
2022-11-02T05:17:44.103Z,1013.98
2022-11-02T05:18:44.095Z,1013.98
2022-11-02T05:19:44.084Z,1013.96
2022-11-02T05:20:44.072Z,1013.99
2022-11-02T05:21:44.066Z,1014.01
2022-11-02T05:22:44.054Z,1014.04
2022-11-02T05:23:44.052Z,1014.06
2022-11-02T05:24:44.037Z,1014.10
2022-11-02T05:25:44.028Z,1014.09
2022-11-02T05:26:44.020Z,1014.08
2022-11-02T05:27:44.010Z,1014.08
2022-11-02T05:28:44.001Z,1014.10
2022-11-02T05:29:43.992Z,1014.03
2022-11-02T05:30:43.982Z,1014.04
2022-11-02T05:31:43.974Z,1014.03
2022-11-02T05:32:43.964Z,1014.00
2022-11-02T05:33:43.959Z,1013.99
2022-11-02T05:34:43.945Z,1014.00
2022-11-02T05:35:43.938Z,1014.02
2022-11-02T05:36:43.927Z,1014.02
2022-11-02T05:37:43.916Z,1014.00
2022-11-02T05:38:43.911Z,1014.01
2022-11-02T05:39:46.348Z,1014.05
2022-11-02T05:40:43.894Z,1014.01
2022-11-02T05:41:43.882Z,1014.07
2022-11-02T05:42:43.871Z,1014.03
2022-11-02T05:43:43.866Z,1014.01
2022-11-02T05:44:43.854Z,1014.00
2022-11-02T05:45:43.846Z,1014.01
2022-11-02T05:46:43.839Z,1014.00
2022-11-02T05:47:43.828Z,1014.06
2022-11-02T05:48:43.820Z,1014.10
2022-11-02T05:49:43.807Z,1014.09
2022-11-02T05:50:43.797Z,1014.08
2022-11-02T05:51:43.793Z,1014.05
2022-11-02T05:52:43.778Z,1014.03
2022-11-02T05:53:43.772Z,1014.01
2022-11-02T05:54:43.782Z,1014.00
2022-11-02T05:55:43.755Z,1013.97
2022-11-02T05:56:43.748Z,1014.00
2022-11-02T05:57:43.735Z,1014.01
2022-11-02T05:58:43.769Z,1013.98
2022-11-02T05:59:46.672Z,1014.01
2022-11-02T06:00:43.708Z,1014.02
2022-11-02T06:01:43.783Z,1014.00
2022-11-02T06:02:43.690Z,1013.98
2022-11-02T06:03:45.685Z,1013.99
2022-11-02T06:04:43.670Z,1014.06
2022-11-02T06:05:43.732Z,1014.08
2022-11-02T06:06:43.655Z,1014.06
2022-11-02T06:07:43.647Z,1014.06
2022-11-02T06:08:43.633Z,1014.06
2022-11-02T06:09:43.623Z,1014.05
2022-11-02T06:10:43.613Z,1014.01
2022-11-02T06:11:43.611Z,1014.06
2022-11-02T06:12:43.596Z,1014.01
2022-11-02T06:13:43.591Z,1013.99
2022-11-02T06:14:43.578Z,1014.03
2022-11-02T06:15:43.586Z,1014.07
2022-11-02T06:16:43.561Z,1014.03
2022-11-02T06:17:43.550Z,1014.04
2022-11-02T06:18:43.544Z,1014.04
2022-11-02T06:19:43.533Z,1014.09
2022-11-02T06:20:43.524Z,1014.07
2022-11-02T06:21:45.835Z,1014.10
2022-11-02T06:22:43.505Z,1014.09
2022-11-02T06:23:43.497Z,1014.10
2022-11-02T06:24:43.487Z,1014.10
2022-11-02T06:25:43.478Z,1014.11
2022-11-02T06:26:43.469Z,1014.13
2022-11-02T06:27:45.910Z,1014.13
2022-11-02T06:28:43.455Z,1014.14
2022-11-02T06:29:43.444Z,1014.08
2022-11-02T06:30:43.431Z,1014.10
2022-11-02T06:31:43.423Z,1014.07
2022-11-02T06:32:43.413Z,1014.10
2022-11-02T06:33:43.403Z,1014.05
2022-11-02T06:34:43.395Z,1014.12
2022-11-02T06:35:43.386Z,1014.12
2022-11-02T06:36:43.380Z,1014.15
2022-11-02T06:37:43.366Z,1014.15
2022-11-02T06:38:43.359Z,1014.14
2022-11-02T06:39:43.352Z,1014.21
2022-11-02T06:40:43.341Z,1014.19
2022-11-02T06:41:43.330Z,1014.18
2022-11-02T06:43:43.313Z,1014.27
2022-11-02T06:44:43.302Z,1014.30
2022-11-02T06:45:43.299Z,1014.32
2022-11-02T06:46:43.284Z,1014.33
2022-11-02T06:47:43.281Z,1014.35
2022-11-02T06:48:43.267Z,1014.35
2022-11-02T06:49:43.256Z,1014.35
2022-11-02T06:50:43.249Z,1014.32
2022-11-02T06:51:43.242Z,1014.35
2022-11-02T06:52:43.230Z,1014.35
2022-11-02T06:53:43.224Z,1014.39
2022-11-02T06:54:43.219Z,1014.40
2022-11-02T06:55:43.201Z,1014.40
2022-11-02T06:56:43.194Z,1014.41
2022-11-02T06:57:43.185Z,1014.37
2022-11-02T06:58:43.174Z,1014.38
2022-11-02T06:59:43.166Z,1014.33
2022-11-02T07:00:43.211Z,1014.33
2022-11-02T07:01:43.285Z,1014.31
2022-11-02T07:02:43.138Z,1014.33
2022-11-02T07:03:43.152Z,1014.35
2022-11-02T07:04:43.123Z,1014.33
2022-11-02T07:05:43.115Z,1014.36
2022-11-02T07:06:43.104Z,1014.39
2022-11-02T07:07:43.100Z,1014.42
2022-11-02T07:08:43.084Z,1014.39
2022-11-02T07:09:43.080Z,1014.37
2022-11-02T07:10:43.068Z,1014.37
2022-11-02T07:11:43.060Z,1014.37
2022-11-02T07:12:43.048Z,1014.37
2022-11-02T07:13:43.042Z,1014.39
2022-11-02T07:14:43.032Z,1014.38
2022-11-02T07:15:43.026Z,1014.40
2022-11-02T07:16:43.014Z,1014.35
2022-11-02T07:17:43.008Z,1014.37
2022-11-02T07:18:42.999Z,1014.40
2022-11-02T07:19:42.995Z,1014.35
2022-11-02T07:20:42.978Z,1014.37
2022-11-02T07:21:46.610Z,1014.39
2022-11-02T07:22:42.963Z,1014.37
2022-11-02T07:23:42.952Z,1014.38
2022-11-02T07:24:42.941Z,1014.37
2022-11-02T07:25:42.938Z,1014.36
2022-11-02T07:26:42.945Z,1014.36
2022-11-02T07:27:42.917Z,1014.40
2022-11-02T07:28:42.903Z,1014.35
2022-11-02T07:29:42.900Z,1014.37
2022-11-02T07:30:42.896Z,1014.39
2022-11-02T07:31:42.895Z,1014.42
2022-11-02T07:32:42.874Z,1014.46
2022-11-02T07:33:42.895Z,1014.45
2022-11-02T07:34:42.854Z,1014.42
2022-11-02T07:35:42.859Z,1014.42
2022-11-02T07:36:42.840Z,1014.43
2022-11-02T07:37:42.831Z,1014.43
2022-11-02T07:38:42.822Z,1014.45
2022-11-02T07:39:42.814Z,1014.43
2022-11-02T07:40:42.838Z,1014.47
2022-11-02T07:41:45.663Z,1014.46
2022-11-02T07:42:42.823Z,1014.46
2022-11-02T07:43:43.277Z,1014.46
2022-11-02T07:44:42.780Z,1014.45
2022-11-02T07:45:42.764Z,1014.48
2022-11-02T07:46:42.775Z,1014.55
2022-11-02T07:47:42.756Z,1014.50
2022-11-02T07:48:42.739Z,1014.53
2022-11-02T07:49:42.729Z,1014.52
2022-11-02T07:50:42.719Z,1014.51
2022-11-02T07:51:42.881Z,1014.45
2022-11-02T07:52:42.704Z,1014.40
2022-11-02T07:53:42.693Z,1014.43
2022-11-02T07:54:44.685Z,1014.45
2022-11-02T07:55:42.677Z,1014.44
2022-11-02T07:56:42.669Z,1014.52
2022-11-02T07:57:42.662Z,1014.51
2022-11-02T07:58:42.654Z,1014.54
2022-11-02T07:59:42.648Z,1014.47
2022-11-02T08:00:42.640Z,1014.47
2022-11-02T08:01:42.685Z,1014.48
2022-11-02T08:02:42.740Z,1014.51
2022-11-02T08:03:42.614Z,1014.47
2022-11-02T08:04:44.949Z,1014.50
2022-11-02T08:05:42.597Z,1014.51
2022-11-02T08:06:42.591Z,1014.46
2022-11-02T08:07:42.579Z,1014.48
2022-11-02T08:08:42.693Z,1014.53
2022-11-02T08:09:42.564Z,1014.53
2022-11-02T08:10:42.559Z,1014.49
2022-11-02T08:11:42.547Z,1014.56
2022-11-02T08:12:42.547Z,1014.52
2022-11-02T08:13:42.538Z,1014.50
2022-11-02T08:14:42.525Z,1014.52
2022-11-02T08:15:42.519Z,1014.55
2022-11-02T08:16:42.509Z,1014.54
2022-11-02T08:17:42.501Z,1014.49
2022-11-02T08:18:42.497Z,1014.51
2022-11-02T08:19:42.487Z,1014.51
2022-11-02T08:20:42.478Z,1014.50
2022-11-02T08:21:42.471Z,1014.51
2022-11-02T08:22:42.464Z,1014.48
2022-11-02T08:23:42.461Z,1014.47
2022-11-02T08:24:42.447Z,1014.50
2022-11-02T08:25:42.449Z,1014.57
2022-11-02T08:26:45.271Z,1014.56
2022-11-02T08:27:42.426Z,1014.61
2022-11-02T08:28:42.419Z,1014.57
2022-11-02T08:29:42.410Z,1014.57
2022-11-02T08:30:42.401Z,1014.56
2022-11-02T08:31:42.395Z,1014.58
2022-11-02T08:32:42.393Z,1014.58
2022-11-02T08:33:42.383Z,1014.57
2022-11-02T08:34:42.400Z,1014.54
2022-11-02T08:35:42.364Z,1014.54
2022-11-02T08:36:42.366Z,1014.55
2022-11-02T08:37:42.349Z,1014.58
2022-11-02T08:38:42.348Z,1014.61
2022-11-02T08:39:42.339Z,1014.62
2022-11-02T08:40:42.327Z,1014.58
2022-11-02T08:41:42.320Z,1014.54
2022-11-02T08:42:42.315Z,1014.55
2022-11-02T08:43:42.306Z,1014.56
2022-11-02T08:44:42.812Z,1014.57
2022-11-02T08:46:13.108Z,1014.59
2022-11-02T08:46:42.373Z,1014.60
2022-11-02T08:47:42.275Z,1014.61
2022-11-02T08:48:42.270Z,1014.59
2022-11-02T08:49:42.263Z,1014.55
2022-11-02T08:50:42.255Z,1014.57
2022-11-02T08:51:42.245Z,1014.56
2022-11-02T08:52:42.240Z,1014.59
2022-11-02T08:53:44.664Z,1014.53
2022-11-02T08:54:42.225Z,1014.57
2022-11-02T08:55:42.219Z,1014.54
2022-11-02T08:56:42.210Z,1014.51
2022-11-02T08:57:42.203Z,1014.53
2022-11-02T08:58:42.197Z,1014.54
2022-11-02T08:59:42.190Z,1014.52
2022-11-02T09:00:42.180Z,1014.53
2022-11-02T09:01:42.305Z,1014.50
2022-11-02T09:02:42.223Z,1014.52
2022-11-02T09:03:42.165Z,1014.55
2022-11-02T09:04:42.159Z,1014.50
2022-11-02T09:05:42.147Z,1014.51
2022-11-02T09:06:42.142Z,1014.50
2022-11-02T09:07:42.132Z,1014.51
2022-11-02T09:08:42.127Z,1014.53
2022-11-02T09:09:42.179Z,1014.46
2022-11-02T09:10:42.108Z,1014.51
2022-11-02T09:11:42.106Z,1014.50
2022-11-02T09:12:42.094Z,1014.55
2022-11-02T09:13:42.122Z,1014.53
2022-11-02T09:14:42.077Z,1014.51
2022-11-02T09:15:42.092Z,1014.52
2022-11-02T09:16:42.071Z,1014.56
2022-11-02T09:17:42.060Z,1014.50
2022-11-02T09:18:42.054Z,1014.54
2022-11-02T09:19:42.044Z,1014.50
2022-11-02T09:20:42.036Z,1014.61
2022-11-02T09:21:42.032Z,1014.56
2022-11-02T09:22:42.018Z,1014.53
2022-11-02T09:23:42.040Z,1014.58
2022-11-02T09:24:42.007Z,1014.58
2022-11-02T09:25:42.013Z,1014.53
2022-11-02T09:26:41.993Z,1014.54
2022-11-02T09:27:41.990Z,1014.50
2022-11-02T09:28:41.980Z,1014.49
2022-11-02T09:29:41.973Z,1014.56
2022-11-02T09:30:41.962Z,1014.48
2022-11-02T09:31:41.960Z,1014.54
2022-11-02T09:32:41.951Z,1014.55
2022-11-02T09:33:41.947Z,1014.55
2022-11-02T09:34:41.938Z,1014.54
2022-11-02T09:35:41.931Z,1014.56
2022-11-02T09:36:41.926Z,1014.57
2022-11-02T09:37:43.239Z,1014.61
2022-11-02T09:38:41.910Z,1014.55
2022-11-02T09:39:41.903Z,1014.57
2022-11-02T09:40:41.891Z,1014.61
2022-11-02T09:41:41.891Z,1014.59
2022-11-02T09:42:41.890Z,1014.63
2022-11-02T09:43:41.878Z,1014.57
2022-11-02T09:44:41.869Z,1014.61
2022-11-02T09:45:41.861Z,1014.63
2022-11-02T09:46:41.854Z,1014.64
2022-11-02T09:48:14.721Z,1014.63
2022-11-02T09:48:41.841Z,1014.66
2022-11-02T09:49:41.833Z,1014.63
2022-11-02T09:50:41.830Z,1014.65
2022-11-02T09:51:41.824Z,1014.63
2022-11-02T09:52:41.813Z,1014.60
2022-11-02T09:53:41.806Z,1014.66
2022-11-02T09:54:41.803Z,1014.61
2022-11-02T09:55:41.796Z,1014.69
2022-11-02T09:56:41.787Z,1014.63
2022-11-02T09:57:41.778Z,1014.66
2022-11-02T09:58:41.773Z,1014.69
2022-11-02T09:59:41.769Z,1014.70
2022-11-02T10:00:41.756Z,1014.62
2022-11-02T10:01:41.805Z,1014.58
2022-11-02T10:02:41.803Z,1014.62
2022-11-02T10:03:41.744Z,1014.63
2022-11-02T10:04:41.738Z,1014.67
2022-11-02T10:05:41.726Z,1014.61
2022-11-02T10:06:41.722Z,1014.61
2022-11-02T10:07:41.716Z,1014.60
2022-11-02T10:08:41.704Z,1014.68
2022-11-02T10:09:41.702Z,1014.57
2022-11-02T10:10:41.697Z,1014.63
2022-11-02T10:11:41.696Z,1014.61
2022-11-02T10:12:41.681Z,1014.63
2022-11-02T10:13:41.680Z,1014.65
2022-11-02T10:14:41.667Z,1014.62
2022-11-02T10:15:41.660Z,1014.69
2022-11-02T10:16:41.656Z,1014.71
2022-11-02T10:17:41.649Z,1014.62
2022-11-02T10:18:41.639Z,1014.64
2022-11-02T10:19:41.637Z,1014.65
2022-11-02T10:20:41.628Z,1014.68
2022-11-02T10:21:41.625Z,1014.69
2022-11-02T10:22:41.619Z,1014.71
2022-11-02T10:23:41.611Z,1014.75
2022-11-02T10:24:41.601Z,1014.76
2022-11-02T10:25:41.597Z,1014.71
2022-11-02T10:26:41.589Z,1014.78
2022-11-02T10:27:41.676Z,1014.76
2022-11-02T10:28:41.575Z,1014.75
2022-11-02T10:29:41.576Z,1014.67
2022-11-02T10:30:41.565Z,1014.75
2022-11-02T10:31:41.557Z,1014.68
2022-11-02T10:32:44.583Z,1014.63
2022-11-02T10:33:41.545Z,1014.71
2022-11-02T10:34:41.540Z,1014.66
2022-11-02T10:35:57.689Z,1014.70
2022-11-02T10:36:41.523Z,1014.66
2022-11-02T10:37:41.523Z,1014.71
2022-11-02T10:38:41.516Z,1014.73
2022-11-02T10:39:41.506Z,1014.73
2022-11-02T10:40:41.501Z,1014.71
2022-11-02T10:41:41.492Z,1014.66
2022-11-02T10:42:41.492Z,1014.64
2022-11-02T10:43:41.483Z,1014.65
2022-11-02T10:44:41.475Z,1014.74
2022-11-02T10:45:41.469Z,1014.75
2022-11-02T10:46:41.463Z,1014.77
2022-11-02T10:47:41.462Z,1014.79
2022-11-02T10:48:41.449Z,1014.71
2022-11-02T10:49:41.445Z,1014.75
2022-11-02T10:50:41.440Z,1014.73
2022-11-02T10:51:41.436Z,1014.75
2022-11-02T10:52:41.430Z,1014.76
2022-11-02T10:53:42.350Z,1014.65
2022-11-02T10:54:41.414Z,1014.77
2022-11-02T10:55:41.407Z,1014.79
2022-11-02T10:56:41.401Z,1014.81
2022-11-02T10:57:41.395Z,1014.81
2022-11-02T10:58:41.389Z,1014.75
2022-11-02T10:59:41.388Z,1014.80
2022-11-02T11:00:41.389Z,1014.80
2022-11-02T11:01:41.437Z,1014.81
2022-11-02T11:02:41.364Z,1014.93
2022-11-02T11:03:41.359Z,1014.82
2022-11-02T11:04:41.352Z,1014.91
2022-11-02T11:05:41.346Z,1014.84
2022-11-02T11:06:41.343Z,1014.97
2022-11-02T11:07:41.333Z,1014.95
2022-11-02T11:08:41.328Z,1014.91
2022-11-02T11:09:45.735Z,1014.94
2022-11-02T11:10:41.314Z,1014.92
2022-11-02T11:11:41.312Z,1014.96
2022-11-02T11:12:41.303Z,1015.02
2022-11-02T11:15:48.679Z,1015.08
2022-11-02T11:16:41.320Z,1015.06
2022-11-02T11:19:41.595Z,1014.95
2022-11-02T11:20:41.263Z,1015.01
2022-11-02T11:21:41.255Z,1015.05
2022-11-02T11:22:41.246Z,1015.03
2022-11-02T11:23:41.242Z,1015.02
2022-11-02T11:24:41.284Z,1015.03
2022-11-02T11:25:41.229Z,1015.00
2022-11-02T11:26:41.223Z,1014.95
2022-11-02T11:27:41.216Z,1014.97
2022-11-02T11:28:41.232Z,1015.08
2022-11-02T11:29:41.204Z,1015.07
2022-11-02T11:30:59.997Z,1015.03
2022-11-02T11:31:41.194Z,1015.06
2022-11-02T11:32:41.190Z,1015.07
2022-11-02T11:33:41.180Z,1015.10
2022-11-02T11:34:41.176Z,1015.08
2022-11-02T11:35:41.172Z,1015.08
2022-11-02T11:36:41.229Z,1015.10
2022-11-02T11:37:41.159Z,1015.05
2022-11-02T11:38:41.152Z,1015.06
2022-11-02T11:39:41.153Z,1015.12
2022-11-02T11:40:41.143Z,1015.10
2022-11-02T11:41:41.153Z,1015.12
2022-11-02T11:42:41.130Z,1015.13
2022-11-02T11:43:41.128Z,1015.13
2022-11-02T11:44:41.145Z,1015.19
2022-11-02T11:45:41.137Z,1015.12
2022-11-02T11:46:41.112Z,1015.14
2022-11-02T11:47:41.103Z,1015.14
2022-11-02T11:48:41.094Z,1015.08
2022-11-02T11:50:07.173Z,1015.09
2022-11-02T11:50:41.083Z,1015.11
2022-11-02T11:51:41.085Z,1015.14
2022-11-02T11:52:41.075Z,1015.08
2022-11-02T11:53:41.068Z,1015.10
2022-11-02T11:54:41.070Z,1015.03
2022-11-02T11:55:41.080Z,1015.02
2022-11-02T11:56:41.066Z,1014.98
2022-11-02T11:57:41.056Z,1014.94
2022-11-02T11:58:41.525Z,1015.01
2022-11-02T11:59:41.035Z,1014.97
2022-11-02T12:00:41.029Z,1014.90
2022-11-02T12:01:41.174Z,1014.94
2022-11-02T12:02:44.489Z,1014.98
2022-11-02T12:03:41.012Z,1014.94
2022-11-02T12:04:41.010Z,1014.93
2022-11-02T12:05:41.067Z,1014.94
2022-11-02T12:06:40.997Z,1014.92
2022-11-02T12:07:40.993Z,1014.86
2022-11-02T12:08:40.990Z,1014.86
2022-11-02T12:09:41.003Z,1014.88
2022-11-02T12:10:40.975Z,1014.87
2022-11-02T12:11:40.986Z,1014.88
2022-11-02T12:12:40.969Z,1014.87
2022-11-02T12:13:40.960Z,1014.88